createdAt,value
2019-05-13T00:02:23.997Z,1.20
2019-05-13T00:04:53.283Z,1.60
2019-05-13T00:07:23.937Z,1.60
2019-05-13T00:09:54.338Z,1.33
2019-05-13T00:12:24.001Z,1.13
2019-05-13T00:14:54.022Z,1.23
2019-05-13T00:17:23.708Z,0.90
2019-05-13T00:19:53.295Z,1.20
2019-05-13T00:22:23.450Z,1.40
2019-05-13T00:24:54.256Z,1.37
2019-05-13T00:27:23.587Z,1.50
2019-05-13T00:29:53.399Z,1.57
2019-05-13T00:32:23.691Z,1.10
2019-05-13T00:34:53.398Z,1.10
2019-05-13T00:37:24.434Z,1.20
2019-05-13T00:39:54.285Z,1.10
2019-05-13T00:42:24.540Z,1.07
2019-05-13T00:44:53.630Z,1.10
2019-05-13T00:47:23.640Z,0.90
2019-05-13T00:49:54.125Z,1.00
2019-05-13T00:52:23.611Z,0.97
2019-05-13T00:54:53.504Z,0.90
2019-05-13T00:57:23.781Z,1.00
2019-05-13T00:59:54.092Z,1.30
2019-05-13T01:02:24.307Z,0.90
2019-05-13T01:04:53.654Z,0.90
2019-05-13T01:07:27.863Z,1.20
2019-05-13T01:09:53.559Z,1.47
2019-05-13T01:12:23.823Z,0.93
2019-05-13T01:14:53.494Z,0.80
2019-05-13T01:17:23.566Z,1.03
2019-05-13T01:19:53.749Z,0.80
2019-05-13T01:22:23.943Z,0.77
2019-05-13T01:24:54.166Z,0.90
2019-05-13T01:27:23.921Z,1.10
2019-05-13T01:29:53.561Z,1.00
2019-05-13T01:32:23.822Z,1.07
2019-05-13T01:34:53.877Z,1.07
2019-05-13T01:37:23.519Z,1.07
2019-05-13T01:39:54.170Z,1.00
2019-05-13T01:42:24.154Z,1.00
2019-05-13T01:44:53.888Z,1.00
2019-05-13T01:47:24.097Z,0.80
2019-05-13T01:49:54.260Z,1.17
2019-05-13T01:52:23.842Z,0.97
2019-05-13T01:54:54.371Z,0.93
2019-05-13T01:57:23.885Z,1.30
2019-05-13T01:59:53.765Z,1.00
2019-05-13T02:02:24.287Z,1.00
2019-05-13T02:04:53.491Z,1.00
2019-05-13T02:07:24.406Z,0.80
2019-05-13T02:09:53.546Z,1.00
2019-05-13T02:12:24.103Z,1.10
2019-05-13T02:14:53.482Z,1.20
2019-05-13T02:17:23.508Z,0.90
2019-05-13T02:19:54.037Z,1.00
2019-05-13T02:22:24.740Z,0.93
2019-05-13T02:24:54.019Z,0.90
2019-05-13T02:27:24.915Z,1.00
2019-05-13T02:29:54.055Z,1.13
2019-05-13T02:32:23.570Z,1.30
2019-05-13T02:34:53.286Z,1.10
2019-05-13T02:37:23.345Z,1.00
2019-05-13T02:39:53.147Z,1.10
2019-05-13T02:42:22.947Z,1.20
2019-05-13T02:44:52.903Z,1.00
2019-05-13T02:47:22.675Z,1.00
2019-05-13T02:49:53.380Z,0.80
2019-05-13T02:52:22.617Z,1.00
2019-05-13T02:54:52.807Z,0.90
2019-05-13T02:57:23.320Z,0.90
2019-05-13T02:59:52.846Z,1.20
2019-05-13T03:02:22.592Z,1.10
2019-05-13T03:04:52.518Z,0.87
2019-05-13T03:07:23.237Z,1.00
2019-05-13T03:09:52.797Z,0.90
2019-05-13T03:12:23.165Z,1.10
2019-05-13T03:14:53.288Z,0.93
2019-05-13T03:17:27.846Z,0.90
2019-05-13T03:19:56.878Z,0.90
2019-05-13T03:22:25.941Z,1.07
2019-05-13T03:24:54.992Z,0.93
2019-05-13T03:27:25.360Z,1.00
2019-05-13T03:29:54.589Z,1.00
2019-05-13T03:32:27.002Z,1.10
2019-05-13T03:34:56.444Z,0.97
2019-05-13T03:37:26.979Z,1.47
2019-05-13T03:39:56.911Z,1.23
2019-05-13T03:42:26.523Z,1.17
2019-05-13T03:44:56.183Z,1.07
2019-05-13T03:47:25.466Z,1.10
2019-05-13T03:50:03.015Z,1.03
2019-05-13T03:52:33.525Z,1.23
2019-05-13T03:55:03.194Z,1.10
2019-05-13T03:57:33.801Z,1.10
2019-05-13T04:00:03.751Z,0.90
2019-05-13T04:02:33.144Z,0.80
2019-05-13T04:05:03.974Z,1.10
2019-05-13T04:07:33.220Z,0.90
2019-05-13T04:10:03.522Z,1.10
2019-05-13T04:12:33.536Z,1.10
2019-05-13T04:15:03.850Z,0.90
2019-05-13T04:17:33.168Z,1.00
2019-05-13T04:20:03.013Z,0.90
2019-05-13T04:22:33.300Z,1.00
2019-05-13T04:25:02.726Z,1.23
2019-05-13T04:27:32.677Z,1.03
2019-05-13T04:30:03.542Z,1.00
2019-05-13T04:32:33.691Z,1.20
2019-05-13T04:35:04.085Z,1.30
2019-05-13T04:37:33.476Z,1.50
2019-05-13T04:40:03.691Z,1.43
2019-05-13T04:42:33.557Z,1.30
2019-05-13T04:45:03.348Z,1.60
2019-05-13T04:47:33.384Z,1.70
2019-05-13T04:50:03.235Z,1.60
2019-05-13T04:52:33.154Z,1.20
2019-05-13T04:55:03.657Z,1.57
2019-05-13T04:57:33.353Z,1.40
2019-05-13T05:00:04.182Z,1.43
2019-05-13T05:02:58.413Z,1.57
2019-05-13T05:05:52.439Z,1.70
2019-05-13T05:08:47.702Z,1.60
2019-05-13T05:12:03.581Z,1.50
2019-05-13T05:15:12.076Z,1.87
2019-05-13T05:17:56.878Z,2.10
2019-05-13T05:20:41.488Z,2.20
2019-05-13T05:23:42.358Z,1.80
2019-05-13T05:26:46.721Z,2.10
2019-05-13T05:29:32.079Z,1.93
2019-05-13T05:32:21.563Z,1.60
2019-05-13T05:35:14.299Z,1.37
2019-05-13T05:38:27.630Z,1.90
2019-05-13T05:41:01.569Z,2.30
2019-05-13T05:43:31.908Z,1.80
2019-05-13T05:46:03.034Z,2.30
2019-05-13T05:48:35.366Z,1.70
2019-05-13T05:51:05.417Z,2.00
2019-05-13T05:53:35.799Z,2.00
2019-05-13T05:56:05.224Z,2.57
2019-05-13T05:58:34.889Z,1.90
2019-05-13T06:01:04.737Z,1.80
2019-05-13T06:03:35.843Z,1.60
2019-05-13T06:06:05.239Z,2.53
2019-05-13T06:08:34.332Z,1.97
2019-05-13T06:11:04.181Z,2.00
2019-05-13T06:13:33.550Z,2.50
2019-05-13T06:16:02.603Z,2.00
2019-05-13T06:18:32.618Z,2.10
2019-05-13T06:21:01.905Z,2.47
2019-05-13T06:23:31.330Z,2.17
2019-05-13T06:26:01.925Z,2.07
2019-05-13T06:28:32.250Z,2.00
2019-05-13T06:31:02.513Z,2.10
2019-05-13T06:33:31.811Z,1.83
2019-05-13T06:36:01.326Z,1.93
2019-05-13T06:38:33.620Z,1.40
2019-05-13T06:41:14.007Z,1.40
2019-05-13T06:44:23.631Z,2.33
2019-05-13T06:47:07.704Z,1.93
2019-05-13T06:49:36.870Z,2.47
2019-05-13T06:52:11.990Z,1.93
2019-05-13T06:55:23.147Z,2.07
2019-05-13T06:58:16.584Z,2.00
2019-05-13T07:00:45.661Z,2.60
2019-05-13T07:03:14.709Z,2.07
2019-05-13T07:05:43.968Z,2.27
2019-05-13T07:08:13.020Z,2.20
2019-05-13T07:10:42.086Z,1.90
2019-05-13T07:13:11.547Z,1.80
2019-05-13T07:15:41.741Z,2.10
2019-05-13T07:18:11.698Z,1.60
2019-05-13T07:20:42.587Z,2.10
2019-05-13T07:23:12.291Z,1.80
2019-05-13T07:25:42.175Z,2.20
2019-05-13T07:28:12.638Z,2.00
2019-05-13T07:30:43.846Z,2.70
2019-05-13T07:33:13.315Z,2.40
2019-05-13T07:35:44.897Z,2.00
2019-05-13T07:38:13.591Z,2.47
2019-05-13T07:40:42.664Z,2.03
2019-05-13T07:43:12.549Z,2.17
2019-05-13T07:45:42.515Z,2.23
2019-05-13T07:48:20.630Z,2.00
2019-05-13T07:50:53.680Z,2.43
2019-05-13T07:53:18.734Z,2.57
2019-05-13T07:55:44.041Z,1.97
2019-05-13T07:58:13.104Z,1.63
2019-05-13T08:00:42.182Z,1.40
2019-05-13T08:03:12.378Z,1.50
2019-05-13T08:05:42.004Z,1.20
2019-05-13T08:08:11.870Z,1.40
2019-05-13T08:10:41.676Z,1.63
2019-05-13T08:13:11.912Z,2.30
2019-05-13T08:15:42.057Z,2.40
2019-05-13T08:18:12.381Z,2.67
2019-05-13T08:20:42.211Z,2.50
2019-05-13T08:23:12.048Z,1.90
2019-05-13T08:25:42.324Z,1.67
2019-05-13T08:28:12.408Z,1.90
2019-05-13T08:30:42.682Z,2.00
2019-05-13T08:33:12.444Z,1.93
2019-05-13T08:35:46.899Z,2.03
2019-05-13T08:38:12.760Z,1.87
2019-05-13T08:40:42.602Z,1.50
2019-05-13T08:43:12.236Z,2.07
2019-05-13T08:45:42.226Z,2.30
2019-05-13T08:48:12.777Z,2.20
2019-05-13T08:50:42.474Z,1.70
2019-05-13T08:53:12.292Z,2.50
2019-05-13T08:55:42.633Z,2.00
2019-05-13T08:58:12.605Z,1.70
2019-05-13T09:00:52.978Z,2.10
2019-05-13T09:03:23.029Z,2.10
2019-05-13T09:05:52.729Z,2.00
2019-05-13T09:08:23.711Z,1.57
2019-05-13T09:10:56.436Z,1.70
2019-05-13T09:13:23.784Z,1.70
2019-05-13T09:15:52.834Z,1.70
2019-05-13T09:18:22.917Z,1.40
2019-05-13T09:20:52.334Z,1.50
2019-05-13T09:23:22.278Z,1.53
2019-05-13T09:25:52.298Z,1.60
2019-05-13T09:28:22.120Z,1.50
2019-05-13T09:30:53.197Z,1.50
2019-05-13T09:33:22.209Z,1.70
2019-05-13T09:35:53.467Z,1.60
2019-05-13T09:40:53.410Z,1.53
2019-05-13T09:43:22.614Z,1.10
2019-05-13T09:45:52.494Z,1.20
2019-05-13T09:48:22.595Z,1.47
2019-05-13T09:50:52.034Z,1.10
2019-05-13T09:53:22.217Z,1.20
2019-05-13T09:55:52.338Z,1.30
2019-05-13T09:58:22.575Z,0.90
2019-05-13T10:00:52.805Z,1.40
2019-05-13T10:03:28.882Z,1.00
2019-05-13T10:05:53.134Z,1.30
2019-05-13T10:08:22.294Z,1.00
2019-05-13T10:10:52.824Z,1.30
2019-05-13T10:13:23.146Z,1.30
2019-05-13T10:15:52.612Z,1.10
2019-05-13T10:18:22.254Z,1.30
2019-05-13T10:20:58.828Z,1.30
2019-05-13T10:23:27.953Z,1.27
2019-05-13T10:26:02.742Z,1.30
2019-05-13T10:28:32.390Z,1.00
2019-05-13T10:31:01.423Z,0.93
2019-05-13T10:33:31.926Z,1.20
2019-05-13T10:36:03.382Z,1.50
2019-05-13T10:38:32.902Z,1.10
2019-05-13T10:41:03.342Z,1.17
2019-05-13T10:43:33.211Z,1.60
2019-05-13T10:46:04.027Z,1.03
2019-05-13T10:48:33.099Z,1.10
2019-05-13T10:51:02.487Z,1.17
2019-05-13T10:53:32.238Z,1.50
2019-05-13T10:56:03.163Z,1.10
2019-05-13T10:58:32.159Z,1.57
2019-05-13T11:01:02.722Z,1.20
2019-05-13T11:03:33.159Z,1.20
2019-05-13T11:06:02.461Z,0.90
2019-05-13T11:08:32.983Z,1.10
2019-05-13T11:11:02.951Z,0.60
2019-05-13T11:13:49.572Z,1.10
2019-05-13T11:16:02.812Z,0.90
2019-05-13T11:18:31.887Z,0.80
2019-05-13T11:21:02.159Z,0.90
2019-05-13T11:23:32.114Z,0.70
2019-05-13T11:26:03.111Z,0.70
2019-05-13T11:28:32.748Z,0.80
2019-05-13T11:31:03.363Z,0.70
2019-05-13T11:33:32.616Z,0.70
2019-05-13T11:36:03.320Z,0.83
2019-05-13T11:38:32.897Z,0.70
2019-05-13T11:41:02.755Z,0.87
2019-05-13T11:43:33.205Z,1.10
2019-05-13T11:46:02.871Z,1.10
2019-05-13T11:48:32.521Z,1.00
2019-05-13T11:51:03.783Z,0.80
2019-05-13T11:53:34.466Z,0.70
2019-05-13T11:56:03.843Z,0.90
2019-05-13T11:58:33.134Z,0.60
2019-05-13T12:01:03.196Z,0.97
2019-05-13T12:03:32.668Z,0.80
2019-05-13T12:06:02.606Z,0.80
2019-05-13T12:08:34.020Z,0.70
2019-05-13T12:11:04.262Z,0.70
2019-05-13T12:13:34.033Z,0.67
2019-05-13T12:16:03.894Z,0.70
2019-05-13T12:18:33.061Z,1.00
2019-05-13T12:21:03.324Z,0.90
2019-05-13T12:23:32.916Z,0.80
2019-05-13T12:26:04.329Z,0.80
2019-05-13T12:28:32.706Z,0.90
2019-05-13T12:31:03.222Z,0.70
2019-05-13T12:33:32.925Z,0.90
2019-05-13T12:36:02.357Z,0.80
2019-05-13T12:38:33.107Z,0.70
2019-05-13T12:41:05.183Z,0.80
2019-05-13T12:43:33.409Z,0.70
2019-05-13T12:46:02.737Z,0.90
2019-05-13T12:48:31.922Z,0.93
2019-05-13T12:51:03.129Z,1.00
2019-05-13T12:53:32.478Z,0.80
2019-05-13T12:56:03.363Z,0.90
2019-05-13T12:58:34.278Z,0.80
2019-05-13T13:01:03.617Z,0.60
2019-05-13T13:03:32.728Z,0.97
2019-05-13T13:06:25.646Z,0.70
2019-05-13T13:08:42.299Z,0.70
2019-05-13T13:11:03.443Z,0.83
2019-05-13T13:13:54.105Z,0.87
2019-05-13T13:16:03.803Z,0.70
2019-05-13T13:18:33.036Z,0.70
2019-05-13T13:21:06.847Z,0.60
2019-05-13T13:23:34.205Z,0.70
2019-05-13T13:26:03.549Z,0.50
2019-05-13T13:28:34.108Z,0.63
2019-05-13T13:31:04.479Z,0.60
2019-05-13T13:33:34.560Z,0.67
2019-05-13T13:36:05.252Z,0.70
2019-05-13T13:38:34.529Z,0.70
2019-05-13T13:41:04.305Z,0.80
2019-05-13T13:43:37.021Z,0.53
2019-05-13T13:46:11.573Z,0.60
2019-05-13T13:48:35.195Z,0.70
2019-05-13T13:51:05.210Z,0.60
2019-05-13T13:53:34.453Z,0.67
2019-05-13T13:56:03.538Z,0.73
2019-05-13T13:58:32.929Z,0.87
2019-05-13T14:01:11.898Z,0.70
2019-05-13T14:03:34.461Z,0.60
2019-05-13T14:06:06.386Z,0.60
2019-05-13T14:07:03.779Z,1.53
2019-05-13T14:08:34.544Z,0.90
2019-05-13T14:11:03.629Z,0.60
2019-05-13T14:13:32.631Z,0.70
2019-05-13T14:16:02.074Z,0.80
2019-05-13T14:18:31.830Z,0.50
2019-05-13T14:21:03.405Z,0.50
2019-05-13T14:23:37.564Z,0.53
2019-05-13T14:26:04.839Z,0.60
2019-05-13T14:28:34.075Z,0.70
2019-05-13T14:31:03.167Z,0.73
2019-05-13T14:33:35.175Z,0.63
2019-05-13T14:36:03.063Z,0.60
2019-05-13T14:38:32.898Z,0.60
2019-05-13T14:41:03.402Z,0.50
2019-05-13T14:43:32.930Z,0.70
2019-05-13T14:46:02.575Z,0.60
2019-05-13T14:48:32.918Z,0.43
2019-05-13T14:51:02.270Z,0.50
2019-05-13T14:53:32.314Z,0.80
2019-05-13T14:56:03.004Z,0.70
2019-05-13T14:58:32.786Z,0.70
2019-05-13T15:01:14.317Z,0.50
2019-05-13T15:03:33.106Z,0.50
2019-05-13T15:06:02.698Z,0.60
2019-05-13T15:08:32.749Z,0.70
2019-05-13T15:11:02.253Z,0.80
2019-05-13T15:13:31.923Z,0.80
2019-05-13T15:16:01.472Z,1.00
2019-05-13T15:18:32.746Z,0.70
2019-05-13T15:21:01.864Z,0.60
2019-05-13T15:23:34.949Z,0.87
2019-05-13T15:26:02.398Z,0.83
2019-05-13T15:28:32.837Z,0.70
2019-05-13T15:31:01.884Z,0.70
2019-05-13T15:33:32.747Z,0.70
2019-05-13T15:36:02.353Z,0.83
2019-05-13T15:38:32.151Z,0.60
2019-05-13T15:41:02.214Z,0.60
2019-05-13T15:43:32.081Z,0.70
2019-05-13T15:46:01.949Z,0.60
2019-05-13T15:48:31.753Z,0.70
2019-05-13T15:51:02.039Z,0.40
2019-05-13T15:53:32.046Z,0.80
2019-05-13T15:56:02.553Z,0.60
2019-05-13T15:58:39.365Z,0.80
2019-05-13T16:01:03.151Z,0.60
2019-05-13T16:03:32.324Z,0.60
2019-05-13T16:06:01.830Z,0.90
2019-05-13T16:08:31.800Z,0.60
2019-05-13T16:11:02.252Z,0.60
2019-05-13T16:13:31.978Z,0.70
2019-05-13T16:16:01.741Z,0.60
2019-05-13T16:18:31.703Z,0.80
2019-05-13T16:21:01.786Z,0.80
2019-05-13T16:23:32.426Z,0.80
2019-05-13T16:26:01.949Z,0.70
2019-05-13T16:28:32.597Z,0.83
2019-05-13T16:31:02.457Z,0.80
2019-05-13T16:33:31.755Z,1.00
2019-05-13T16:36:02.692Z,0.83
2019-05-13T16:38:32.839Z,0.90
2019-05-13T16:41:02.189Z,0.70
2019-05-13T16:43:32.076Z,0.60
2019-05-13T16:46:01.309Z,1.03
2019-05-13T16:48:32.316Z,1.13
2019-05-13T16:51:01.161Z,0.90
2019-05-13T16:53:31.518Z,0.70
2019-05-13T16:56:01.739Z,0.80
2019-05-13T16:58:32.526Z,1.10
2019-05-13T17:01:02.656Z,0.70
2019-05-13T17:03:32.145Z,0.80
2019-05-13T17:06:02.114Z,0.60
2019-05-13T17:08:31.961Z,0.50
2019-05-13T17:11:02.350Z,0.60
2019-05-13T17:13:31.702Z,0.60
2019-05-13T17:16:01.595Z,0.63
2019-05-13T17:18:32.416Z,0.60
2019-05-13T17:21:01.786Z,0.50
2019-05-13T17:23:30.847Z,0.80
2019-05-13T17:26:01.946Z,0.70
2019-05-13T17:28:33.906Z,0.67
2019-05-13T17:31:02.225Z,0.60
2019-05-13T17:33:31.975Z,0.80
2019-05-13T17:36:01.925Z,0.90
2019-05-13T17:38:32.405Z,0.60
2019-05-13T17:41:02.447Z,0.70
2019-05-13T17:43:32.200Z,0.70
2019-05-13T17:46:01.442Z,0.70
2019-05-13T17:48:32.916Z,0.80
2019-05-13T17:51:01.600Z,0.60
2019-05-13T17:53:32.463Z,0.70
2019-05-13T17:56:02.418Z,0.73
2019-05-13T17:58:31.853Z,0.63
2019-05-13T18:01:01.684Z,0.67
2019-05-13T18:03:31.955Z,0.83
2019-05-13T18:06:02.289Z,0.70
2019-05-13T18:08:32.231Z,0.70
2019-05-13T18:11:02.263Z,0.50
2019-05-13T18:13:31.694Z,0.73
2019-05-13T18:16:02.437Z,0.70
2019-05-13T18:18:40.318Z,0.60
2019-05-13T18:21:02.172Z,0.60
2019-05-13T18:23:31.309Z,0.60
2019-05-13T18:26:01.937Z,0.50
2019-05-13T18:28:31.677Z,0.70
2019-05-13T18:31:01.788Z,0.60
2019-05-13T18:33:32.015Z,0.60
2019-05-13T18:36:01.794Z,0.70
2019-05-13T18:38:31.286Z,0.70
2019-05-13T18:41:01.838Z,0.80
2019-05-13T18:43:52.914Z,0.70
2019-05-13T18:46:21.662Z,0.63
2019-05-13T18:48:58.564Z,0.80
2019-05-13T18:51:21.746Z,0.70
2019-05-13T18:53:51.928Z,0.60
2019-05-13T18:56:21.795Z,0.60
2019-05-13T18:58:51.084Z,0.50
2019-05-13T19:01:21.588Z,0.70
2019-05-13T19:03:50.791Z,0.60
2019-05-13T19:06:22.184Z,0.80
2019-05-13T19:08:52.810Z,0.63
2019-05-13T19:11:22.345Z,0.60
2019-05-13T19:13:52.172Z,0.70
2019-05-13T19:16:21.659Z,0.50
2019-05-13T19:18:50.800Z,0.73
2019-05-13T19:21:21.896Z,0.70
2019-05-13T19:23:51.315Z,0.60
2019-05-13T19:26:21.792Z,0.70
2019-05-13T19:28:51.616Z,0.70
2019-05-13T19:31:22.118Z,0.63
2019-05-13T19:33:52.053Z,0.63
2019-05-13T19:36:21.263Z,0.50
2019-05-13T19:38:51.235Z,0.60
2019-05-13T19:41:22.229Z,0.67
2019-05-13T19:43:51.313Z,0.50
2019-05-13T19:46:20.413Z,0.50
2019-05-13T19:48:49.455Z,0.60
2019-05-13T19:51:18.530Z,0.57
2019-05-13T19:53:47.597Z,0.60
2019-05-13T19:56:16.674Z,0.60
2019-05-13T19:58:45.727Z,0.50
2019-05-13T20:01:14.803Z,0.60
2019-05-13T20:03:43.867Z,0.50
2019-05-13T20:06:12.877Z,0.53
2019-05-13T20:08:41.866Z,0.73
2019-05-13T20:11:11.564Z,0.70
2019-05-13T20:13:41.768Z,0.70
2019-05-13T20:16:11.705Z,0.60
2019-05-13T20:18:41.506Z,0.60
2019-05-13T20:21:13.436Z,0.70
2019-05-13T20:23:41.647Z,0.50
2019-05-13T20:26:10.724Z,0.53
2019-05-13T20:28:41.854Z,0.60
2019-05-13T20:31:11.080Z,0.43
2019-05-13T20:33:42.844Z,0.60
2019-05-13T20:36:11.904Z,0.63
2019-05-13T20:38:41.051Z,0.63
2019-05-13T20:41:11.663Z,0.60
2019-05-13T20:43:42.610Z,0.60
2019-05-13T20:46:11.559Z,0.70
2019-05-13T20:48:41.209Z,0.43
2019-05-13T20:51:11.368Z,0.60
2019-05-13T20:53:41.228Z,0.70
2019-05-13T20:56:10.459Z,0.50
2019-05-13T20:58:39.514Z,0.60
2019-05-13T21:01:08.601Z,0.80
2019-05-13T21:03:37.502Z,0.70
2019-05-13T21:06:06.582Z,0.70
2019-05-13T21:08:35.631Z,0.60
2019-05-13T21:11:04.713Z,0.60
2019-05-13T21:13:33.784Z,0.60
2019-05-13T21:16:02.780Z,0.60
2019-05-13T21:18:31.881Z,0.50
2019-05-13T21:21:01.000Z,0.50
2019-05-13T21:23:31.261Z,0.60
2019-05-13T21:26:01.602Z,0.50
2019-05-13T21:28:30.779Z,0.70
2019-05-13T21:31:01.959Z,0.70
2019-05-13T21:33:31.484Z,0.70
2019-05-13T21:36:01.830Z,0.70
2019-05-13T21:38:32.415Z,0.60
2019-05-13T21:41:01.761Z,0.70
2019-05-13T21:43:32.431Z,0.50
2019-05-13T21:46:02.108Z,0.80
2019-05-13T21:48:32.372Z,0.50
2019-05-13T21:51:01.802Z,0.60
2019-05-13T21:53:32.577Z,0.53
2019-05-13T21:56:02.317Z,0.60
2019-05-13T21:58:31.614Z,0.60
2019-05-13T22:01:01.735Z,0.60
2019-05-13T22:03:33.180Z,0.60
2019-05-13T22:06:02.094Z,0.60
2019-05-13T22:08:32.144Z,0.70
2019-05-13T22:11:01.887Z,0.90
2019-05-13T22:13:31.709Z,0.73
2019-05-13T22:16:01.849Z,0.80
2019-05-13T22:18:31.568Z,0.60
2019-05-13T22:21:01.389Z,0.60
2019-05-13T22:23:32.038Z,0.70
2019-05-13T22:26:01.765Z,0.70
2019-05-13T22:28:31.403Z,0.53
2019-05-13T22:31:01.411Z,0.73
2019-05-13T22:33:32.498Z,0.60
2019-05-13T22:36:01.855Z,0.60
2019-05-13T22:38:32.251Z,0.50
2019-05-13T22:41:01.672Z,0.60
2019-05-13T22:43:32.023Z,0.60
2019-05-13T22:46:01.301Z,0.60
2019-05-13T22:48:31.741Z,0.60
2019-05-13T22:51:01.447Z,0.70
2019-05-13T22:53:31.871Z,0.60
2019-05-13T22:56:01.058Z,0.70
2019-05-13T22:58:32.054Z,0.60
2019-05-13T23:01:02.549Z,0.70
2019-05-13T23:03:32.512Z,0.70
2019-05-13T23:06:01.807Z,0.53
2019-05-13T23:08:32.412Z,0.57
2019-05-13T23:11:02.209Z,0.57
2019-05-13T23:13:31.516Z,0.60
2019-05-13T23:16:02.337Z,0.70
2019-05-13T23:18:31.792Z,0.53
2019-05-13T23:21:02.272Z,0.50
2019-05-13T23:23:31.633Z,0.50
2019-05-13T23:26:00.691Z,0.50
2019-05-13T23:28:32.084Z,0.60
2019-05-13T23:31:01.728Z,0.50
2019-05-13T23:33:31.477Z,0.50
2019-05-13T23:36:01.561Z,0.60
2019-05-13T23:38:31.912Z,0.70
2019-05-13T23:41:02.161Z,0.60
2019-05-13T23:43:31.444Z,0.60
2019-05-13T23:46:01.163Z,0.73
2019-05-13T23:48:32.108Z,0.60
2019-05-13T23:51:01.476Z,0.70
2019-05-13T23:53:31.479Z,0.73
2019-05-13T23:56:01.893Z,0.60
2019-05-13T23:58:32.199Z,0.77
